首页
METAR-TAF:

METAR-TAF

机场 :

沃罗涅日, 俄罗斯

纬度: 51-39N, 经度: 039-15E, 海拔: 154米

当前天气观测

该预报发布于10分钟前的11:30 UTC
风速10节,风向西北
温度 24°C
湿度 65%
气压 1008 hPa
能见度10公里或以上
散云层高于3300英尺, 积雨云.

METAR: UUOO 131130Z 32005MPS 9999 SCT033CB 24/17 Q1008 R30/090070 NOSIG RMK QFE743

时间: 14:40 (11:40 UTC)

预报

该预报发布于40分钟前的11:00 UTC
预报有效从13日的 12点(UTC)到 13日的 21点(UTC)
风速6节,风向北转西北
能见度10公里或以上
多云层高于3000英尺, 积雨云.
短暂存在
从 13日的 12点(UTC)到 13日的 21点(UTC)
多云层高于1500英尺, 积雨云.
雷暴, 小雨

TAF: UUOO 131100Z 1312/1321 34003MPS 9999 BKN030CB TEMPO 1312/1321 -TSRA BKN015CB

超过4000个机场的气象观测和天气预报(METAR&TAF报告)。

可查询的气象台以黄色和红色小点在地图上表示。

将鼠标移到小点上方,可查看气象台名称。

然后点击查看天气观测和预报。

如需切换地图:点击带黑十字的绿色按钮放大地图;点击带横线的绿色按钮缩小地图;或者点击绿色箭头查看邻近地区的地图。


METAR-TAF: